D/T METAR WX W/DIR W/SPE G/SPE TEMP DEWP
16/01/19 02:50 EGDM 160250Z AUTO 21011KT 9999 SCT009/// BKN023/// 08/07 Q1010 SSW (210°) 12.7mph 8°C 7°C
16/01/19 01:50 EGDM 160150Z AUTO 22013KT 9999 SCT008/// BKN013/// 08/07 Q1011 SW (220°) 15.0mph 8°C 7°C
16/01/19 00:50 EGDM 160050Z AUTO 21009KT 9999 BKN010/// SCT019/// BKN026/// 07/06 Q1012 SSW (210°) 10.4mph 7°C 6°C
15/01/19 23:50 EGDM 152350Z AUTO 21009KT 9999 SCT028/// BKN150/// 07/06 Q1013 SSW (210°) 10.4mph 7°C 6°C
15/01/19 22:50 EGDM 152250Z AUTO 21010KT 9999 BKN030/// 07/06 Q1014 SSW (210°) 11.5mph 7°C 6°C
15/01/19 21:50 EGDM 152150Z AUTO 21011KT 9999 FEW028/// BKN140/// 07/06 Q1014 SSW (210°) 12.7mph 7°C 6°C
15/01/19 20:50 EGDM 152050Z AUTO 20008KT 9999 BKN029/// BKN160/// 07/06 Q1015 SSW (200°) 9.2mph 7°C 6°C
15/01/19 19:50 EGDM 151950Z AUTO 21007KT 9999 BKN025/// BKN150/// 07/05 Q1016 SSW (210°) 8.1mph 7°C 5°C
15/01/19 18:50 EGDM 151850Z AUTO 21009KT 9999 OVC026/// 08/06 Q1016 SSW (210°) 10.4mph 8°C 6°C
15/01/19 17:50 EGDM 151750Z 21009KT 9999 BKN026 08/05 Q1017 BLU SSW (210°) 10.4mph 8°C 5°C
15/01/19 16:50 EGDM 151650Z 22011KT 9999 BKN025 09/05 Q1017 BLU SW (220°) 12.7mph 9°C 5°C
15/01/19 15:50 EGDM 151550Z 23011KT 9999 FEW018 BKN028 09/05 Q1017 BLU TEMPO BKN024 WHT SW (230°) 12.7mph 9°C 5°C
15/01/19 14:50 EGDM 151450Z AUTO 23010KT 9999 FEW019/// OVC024/// 09/06 Q1018 SW (230°) 11.5mph 9°C 6°C
15/01/19 13:50 EGDM 151350Z AUTO 24012KT 9999 BKN023/// BKN030/// 09/06 Q1018 WSW (240°) 13.8mph 9°C 6°C
15/01/19 12:50 EGDM 151250Z 25011KT 9999 BKN017 09/06 Q1019 WHT NOSIG WSW (250°) 12.7mph 9°C 6°C
15/01/19 11:50 EGDM 151150Z 23012KT 9999 FEW012 BKN018 08/06 Q1020 WHT NOSIG SW (230°) 13.8mph 8°C 6°C
15/01/19 10:50 EGDM 151050Z 22010KT 9999 FEW010 BKN020 08/06 Q1020 WHT NOSIG SW (220°) 11.5mph 8°C 6°C
15/01/19 09:50 EGDM 150950Z 21008KT 9999 FEW013 BKN022 07/05 Q1021 WHT TEMPO SCT013 GRN SSW (210°) 9.2mph 7°C 5°C
15/01/19 08:50 EGDM 150850Z 21007KT 9999 BKN022 06/05 Q1021 WHT NOSIG SSW (210°) 8.1mph 6°C 5°C
15/01/19 07:50 EGDM 150750Z 19007KT 9999 FEW018 OVC023 05/04 Q1021 WHT NOSIG S (190°) 8.1mph 5°C 4°C
15/01/19 06:50 EGDM 150650Z 22007KT 9999 OVC022 06/04 Q1021 WHT SW (220°) 8.1mph 6°C 4°C
15/01/19 05:50 EGDM 150550Z AUTO 22007KT 9999 OVC019/// 06/04 Q1021 SW (220°) 8.1mph 6°C 4°C
15/01/19 04:50 EGDM 150450Z AUTO 21006KT 9999 OVC018/// 06/04 Q1021 SSW (210°) 6.9mph 6°C 4°C
15/01/19 03:50 EGDM 150350Z AUTO 28001KT 9999 BKN019/// 04/03 Q1022 W (280°) 1.2mph 4°C 3°C
15/01/19 02:50 EGDM 150250Z AUTO 15002KT 9999 NCD 02/M00 Q1022 SSE (150°) 2.3mph 2°C 0°C
15/01/19 01:50 EGDM 150150Z AUTO 25006KT 8000 HZ NCD 03/01 Q1023 HZ WSW (250°) 6.9mph 3°C 1°C
15/01/19 00:50 EGDM 150050Z AUTO 24006KT 9999 NCD 03/02 Q1023 WSW (240°) 6.9mph 3°C 2°C
14/01/19 23:50 EGDM 142350Z AUTO 27006KT 9999 NCD 03/01 Q1023 W (270°) 6.9mph 3°C 1°C
14/01/19 22:50 EGDM 142250Z AUTO 25006KT 9999 NCD 03/01 Q1023 WSW (250°) 6.9mph 3°C 1°C
14/01/19 21:50 EGDM 142150Z AUTO 28004KT 9999 FEW041/// 04/02 Q1024 W (280°) 4.6mph 4°C 2°C
14/01/19 20:50 EGDM 142050Z AUTO 23005KT 9999 BKN037/// 05/02 Q1023 SW (230°) 5.8mph 5°C 2°C
14/01/19 19:50 EGDM 141950Z AUTO 26004KT 9999 OVC037/// 06/02 Q1024 W (260°) 4.6mph 6°C 2°C
14/01/19 18:50 EGDM 141850Z AUTO 28004KT 9999 OVC037/// 07/02 Q1023 W (280°) 4.6mph 7°C 2°C
14/01/19 17:50 EGDM 141750Z 27005KT 9999 BKN038 07/02 Q1023 BLU W (270°) 5.8mph 7°C 2°C
14/01/19 16:50 EGDM 141650Z 30004KT 9999 BKN038 07/01 Q1023 BLU WNW (300°) 4.6mph 7°C 1°C
14/01/19 15:50 EGDM 141550Z 30007KT 9999 BKN038 08/01 Q1023 BLU NOSIG WNW (300°) 8.1mph 8°C 1°C
14/01/19 14:50 EGDM 141450Z 31008KT 9999 BKN036 08/02 Q1023 BLU NOSIG NW (310°) 9.2mph 8°C 2°C
14/01/19 13:50 EGDM 141350Z 31010KT 9999 FEW025 BKN040 09/02 Q1022 BLU NOSIG NW (310°) 11.5mph 9°C 2°C
14/01/19 12:50 EGDM 141250Z 30010KT 9999 FEW022 BKN040 08/03 Q1022 BLU NOSIG WNW (300°) 11.5mph 8°C 3°C
14/01/19 11:50 EGDM 141150Z 31011KT 9999 FEW020 BKN040 08/03 Q1022 BLU NOSIG NW (310°) 12.7mph 8°C 3°C
14/01/19 10:50 EGDM 141050Z 30008KT 9999 BKN040 08/03 Q1022 BLU NOSIG WNW (300°) 9.2mph 8°C 3°C
14/01/19 09:50 EGDM 140950Z 30009KT 9999 BKN040 07/03 Q1022 BLU NOSIG WNW (300°) 10.4mph 7°C 3°C
14/01/19 08:50 EGDM 140850Z 30009KT 9999 BKN038 06/02 Q1021 BLU NOSIG WNW (300°) 10.4mph 6°C 2°C
14/01/19 07:50 EGDM 140750Z 30009KT 9999 BKN040 05/02 Q1020 BLU NOSIG WNW (300°) 10.4mph 5°C 2°C
14/01/19 06:50 EGDM 140650Z 29007KT 9999 SCT040 05/01 Q1020 BLU WNW (290°) 8.1mph 5°C 1°C
14/01/19 05:50 EGDM 140550Z AUTO 28009KT 9999 BKN043/// 05/01 Q1019 W (280°) 10.4mph 5°C 1°C
14/01/19 04:50 EGDM 140450Z AUTO 29010KT 9999 FEW045/// 05/01 Q1019 WNW (290°) 11.5mph 5°C 1°C
14/01/19 03:50 EGDM 140350Z AUTO 30010KT 9999 SCT044/// 06/02 Q1018 WNW (300°) 11.5mph 6°C 2°C
14/01/19 02:50 EGDM 140250Z AUTO 30012KT 9999 NCD 06/02 Q1018 WNW (300°) 13.8mph 6°C 2°C
14/01/19 01:50 EGDM 140150Z AUTO 31011KT 9999 NCD 06/02 Q1017 NW (310°) 12.7mph 6°C 2°C
14/01/19 00:50 EGDM 140050Z AUTO 30014KT 9999 BKN044/// 07/03 Q1017 WNW (300°) 16.1mph 7°C 3°C
13/01/19 23:50 EGDM 132350Z AUTO 28010KT 9999 SCT043/// 07/02 Q1016 W (280°) 11.5mph 7°C 2°C
13/01/19 22:50 EGDM 132250Z AUTO 30013KT 9999 NCD 08/01 Q1016 WNW (300°) 15.0mph 8°C 1°C
13/01/19 21:50 EGDM 132150Z AUTO 32014KT 9999 SCT041/// 09/02 Q1016 NW (320°) 16.1mph 9°C 2°C
13/01/19 20:50 EGDM 132050Z AUTO 31018KT 9999 BKN037/// 09/04 Q1015 NW (310°) 20.7mph 9°C 4°C
13/01/19 19:50 EGDM 131950Z AUTO 29012KT 9999 BKN040/// 09/06 Q1014 WNW (290°) 13.8mph 9°C 6°C
13/01/19 18:50 EGDM 131850Z AUTO 29011KT 9999 BKN033/// 09/07 Q1013 WNW (290°) 12.7mph 9°C 7°C
13/01/19 17:50 EGDM 131750Z AUTO 28012KT 9999 SCT011/// BKN036/// 09/08 Q1013 W (280°) 13.8mph 9°C 8°C
13/01/19 16:50 EGDM 131650Z AUTO 28015KT 9999 OVC008/// 09/08 Q1013 W (280°) 17.3mph 9°C 8°C
13/01/19 15:50 EGDM 131550Z AUTO 27017KT 9999 BKN007/// 09/08 Q1013 W (270°) 19.6mph 9°C 8°C
13/01/19 14:50 EGDM 131450Z AUTO 28019KT 9999 OVC011/// 10/07 Q1013 W (280°) 21.9mph 10°C 7°C
13/01/19 13:50 EGDM 131350Z 28021KT 9999 BKN014 10/07 Q1014 GRN W (280°) 24.2mph 10°C 7°C
13/01/19 12:50 EGDM 131250Z 28016KT 9999 BKN016 10/07 Q1015 WHT W (280°) 18.4mph 10°C 7°C
13/01/19 11:50 EGDM 131150Z 27012KT 9999 BKN017 BKN130 10/07 Q1016 WHT W (270°) 13.8mph 10°C 7°C
13/01/19 10:50 EGDM 131050Z 27015KT 9999 FEW014 SCT020 BKN130 10/07 Q1016 WHT W (270°) 17.3mph 10°C 7°C
13/01/19 09:50 EGDM 130950Z 28016KT 9999 FEW012 BKN015 BKN130 09/06 Q1017 WHT W (280°) 18.4mph 9°C 6°C
13/01/19 08:50 EGDM 130850Z 29015KT 9999 FEW012 BKN016 BKN130 09/06 Q1018 WHT WNW (290°) 17.3mph 9°C 6°C
13/01/19 07:50 EGDM 130750Z 28019KT 9999 FEW012 BKN015 BKN120 09/07 Q1017 WHT W (280°) 21.9mph 9°C 7°C
13/01/19 06:50 EGDM 130650Z AUTO 27018KT 9999 FEW009/// OVC130/// 09/07 Q1017 W (270°) 20.7mph 9°C 7°C
13/01/19 05:50 EGDM 130550Z AUTO 28023KT 9999 OVC008/// 09/08 Q1017 W (280°) 26.5mph 9°C 8°C
13/01/19 04:50 EGDM 130450Z AUTO 28017KT 9999 OVC009/// 09/08 Q1018 W (280°) 19.6mph 9°C 8°C
13/01/19 03:50 EGDM 130350Z AUTO 27015KT 9999 OVC009/// 09/08 Q1019 W (270°) 17.3mph 9°C 8°C
13/01/19 02:50 EGDM 130250Z AUTO 28019KT 9999 BKN009/// BKN130/// 09/08 Q1019 W (280°) 21.9mph 9°C 8°C
13/01/19 01:50 EGDM 130150Z AUTO 28014KT 9999 BKN010/// SCT017/// BKN200/// 09/08 Q1019 W (280°) 16.1mph 9°C 8°C
13/01/19 00:50 EGDM 130050Z AUTO 28013KT 9999 SCT011/// SCT019/// BKN150/// 09/07 Q1020 W (280°) 15.0mph 9°C 7°C
12/01/19 23:50 EGDM 122350Z AUTO 28010KT 9999 FEW023/// BKN150/// 09/07 Q1021 W (280°) 11.5mph 9°C 7°C
12/01/19 22:50 EGDM 122250Z AUTO 28014KT 9999 OVC150/// 09/07 Q1021 W (280°) 16.1mph 9°C 7°C
12/01/19 21:50 EGDM 122150Z AUTO 28012KT 9999 FEW012/// BKN140/// 09/07 Q1021 W (280°) 13.8mph 9°C 7°C
12/01/19 20:50 EGDM 122050Z AUTO 29014KT 9999 FEW013/// OVC130/// 08/06 Q1022 WNW (290°) 16.1mph 8°C 6°C
12/01/19 19:50 EGDM 121950Z AUTO 29014KT 9999 FEW014/// SCT120/// BKN150/// 08/06 Q1021 WNW (290°) 16.1mph 8°C 6°C
12/01/19 18:50 EGDM 121850Z AUTO 29013KT 9999 FEW120/// BKN150/// BKN200/// 08/06 Q1021 WNW (290°) 15.0mph 8°C 6°C
12/01/19 17:50 EGDM 121750Z AUTO 28014KT 9999 FEW110/// BKN150/// BKN200/// 08/05 Q1021 W (280°) 16.1mph 8°C 5°C
12/01/19 16:50 EGDM 121650Z AUTO 27011KT 9999 BKN130/// 08/06 Q1022 W (270°) 12.7mph 8°C 6°C
12/01/19 15:50 EGDM 121550Z 28013KT 9999 FEW020 BKN120 09/05 Q1022 BLU W (280°) 15.0mph 9°C 5°C
12/01/19 14:50 EGDM 121450Z 28014KT 9999 FEW018 SCT035 BKN140 09/06 Q1022 BLU NOSIG W (280°) 16.1mph 9°C 6°C
12/01/19 13:50 EGDM 121350Z 30012KT 9999 FEW017 SCT035 BKN150 10/07 Q1022 BLU NOSIG WNW (300°) 13.8mph 10°C 7°C
12/01/19 12:50 EGDM 121250Z 29013KT 9999 FEW013 BKN015 BKN022 10/07 Q1023 WHT BECMG BKN025 BLU WNW (290°) 15.0mph 10°C 7°C
12/01/19 12:34 EGDM 121234Z 29013KT 9999 FEW013 BKN016 BKN022 10/08 Q1023 WHT BECMG BKN025 BLU WNW (290°) 15.0mph 10°C 8°C
12/01/19 11:50 EGDM 121150Z 28012KT 9999 FEW010 BKN013 OVC022 09/08 Q1023 GRN BECMG BKN018 WHT W (280°) 13.8mph 9°C 8°C
12/01/19 10:50 EGDM 121050Z 25013KT 9999 FEW006 BKN009 OVC027 08/07 Q1024 GRN TEMPO 7000 -RA GRN WSW (250°) 15.0mph 8°C 7°C
12/01/19 09:50 EGDM 120950Z 26014KT 8000 -RA FEW007 BKN011 OVC035 08/07 Q1025 GRN TEMPO 6000 GRN -RA W (260°) 16.1mph 8°C 7°C
12/01/19 08:50 EGDM 120850Z 27013KT 9999 BKN011 08/07 Q1025 GRN NOSIG W (270°) 15.0mph 8°C 7°C
12/01/19 07:50 EGDM 120750Z 27014KT 9999 SCT013 BKN016 08/06 Q1025 GRN W (270°) 16.1mph 8°C 6°C
12/01/19 06:50 EGDM 120650Z AUTO 28013KT 9999 OVC010/// 08/07 Q1025 W (280°) 15.0mph 8°C 7°C
12/01/19 05:50 EGDM 120550Z AUTO 28011KT 9999 OVC009/// 08/07 Q1026 W (280°) 12.7mph 8°C 7°C
12/01/19 04:50 EGDM 120450Z AUTO 24008KT 9999 FEW007/// OVC013/// 07/06 Q1027 WSW (240°) 9.2mph 7°C 6°C
12/01/19 03:50 EGDM 120350Z AUTO 26009KT 9999 OVC013/// 07/06 Q1027 W (260°) 10.4mph 7°C 6°C
12/01/19 02:50 EGDM 120250Z AUTO 27008KT 9999 FEW014/// BKN021/// BKN027/// 08/05 Q1028 W (270°) 9.2mph 8°C 5°C
12/01/19 01:50 EGDM 120150Z AUTO 25008KT 9999 OVC028/// 07/05 Q1028 WSW (250°) 9.2mph 7°C 5°C
12/01/19 00:50 EGDM 120050Z AUTO 22007KT 9999 OVC032/// 07/03 Q1029 SW (220°) 8.1mph 7°C 3°C
11/01/19 23:50 EGDM 112350Z AUTO 27005KT 9999 OVC032/// 07/03 Q1030 W (270°) 5.8mph 7°C 3°C
11/01/19 22:50 EGDM 112250Z AUTO 27005KT 9999 OVC029/// 07/03 Q1030 W (270°) 5.8mph 7°C 3°C
11/01/19 21:50 EGDM 112150Z AUTO 29004KT 9999 OVC032/// 07/04 Q1031 WNW (290°) 4.6mph 7°C 4°C
11/01/19 20:50 EGDM 112050Z AUTO 29006KT 9999 OVC028/// 06/04 Q1031 WNW (290°) 6.9mph 6°C 4°C
11/01/19 19:50 EGDM 111950Z AUTO 29005KT 9999 OVC026/// 06/04 Q1031 WNW (290°) 5.8mph 6°C 4°C
11/01/19 18:50 EGDM 111850Z AUTO 31007KT 9999 OVC026/// 07/04 Q1031 NW (310°) 8.1mph 7°C 4°C
11/01/19 17:50 EGDM 111750Z AUTO 32008KT 9999 OVC025/// 07/03 Q1031 NW (320°) 9.2mph 7°C 3°C
11/01/19 16:50 EGDM 111650Z AUTO 32007KT 9999 SCT022/// BKN031/// 07/04 Q1031 NW (320°) 8.1mph 7°C 4°C
11/01/19 15:50 EGDM 111550Z 33009KT 9999 FEW018 BKN220 07/04 Q1031 BLU NNW (330°) 10.4mph 7°C 4°C
11/01/19 14:50 EGDM 111450Z 34011KT 9999 FEW018 BKN220 08/04 Q1031 BLU NOSIG NNW (340°) 12.7mph 8°C 4°C
11/01/19 13:50 EGDM 111350Z 34009KT 9999 FEW015 BKN200 09/05 Q1031 BLU NOSIG NNW (340°) 10.4mph 9°C 5°C
11/01/19 12:50 EGDM 111250Z 32010KT 9999 FEW014 BKN200 08/04 Q1031 BLU NOSIG NW (320°) 11.5mph 8°C 4°C
11/01/19 11:50 EGDM 111150Z 33010KT 9999 FEW015 BKN050 BKN200 08/05 Q1031 BLU NOSIG NNW (330°) 11.5mph 8°C 5°C
11/01/19 10:50 EGDM 111050Z 32007KT 9999 BKN045 BKN055 07/05 Q1031 BLU NOSIG NW (320°) 8.1mph 7°C 5°C
11/01/19 09:50 EGDM 110950Z 32007KT 9999 SCT045 BKN055 06/04 Q1031 BLU NOSIG NW (320°) 8.1mph 6°C 4°C
11/01/19 08:50 EGDM 110850Z 30004KT 9999 SCT045 BKN052 06/04 Q1031 BLU NOSIG WNW (300°) 4.6mph 6°C 4°C
11/01/19 07:50 EGDM 110750Z 33006KT 9999 FEW045 BKN055 05/04 Q1030 BLU NOSIG NNW (330°) 6.9mph 5°C 4°C
11/01/19 06:50 EGDM 110650Z 33008KT CAVOK 06/04 Q1030 BLU NNW (330°) 9.2mph 6°C 4°C
11/01/19 05:50 EGDM 110550Z AUTO 33009KT 9999 OVC050/// 06/04 Q1029 NNW (330°) 10.4mph 6°C 4°C
11/01/19 04:50 EGDM 110450Z AUTO 33011KT 9999 OVC046/// 06/04 Q1029 NNW (330°) 12.7mph 6°C 4°C
11/01/19 03:50 EGDM 110350Z AUTO 33011KT 9999 OVC043/// 06/03 Q1029 NNW (330°) 12.7mph 6°C 3°C
11/01/19 02:50 EGDM 110250Z AUTO 30009KT 9999 OVC042/// 06/04 Q1030 WNW (300°) 10.4mph 6°C 4°C
11/01/19 01:50 EGDM 110150Z AUTO 31005KT 9999 BKN041/// 06/04 Q1030 NW (310°) 5.8mph 6°C 4°C
11/01/19 00:50 EGDM 110050Z AUTO 30006KT 9999 OVC045/// 06/05 Q1030 WNW (300°) 6.9mph 6°C 5°C
10/01/19 23:50 EGDM 102350Z AUTO 31006KT 9999 BKN041/// 06/05 Q1030 NW (310°) 6.9mph 6°C 5°C
10/01/19 22:50 EGDM 102250Z AUTO 34008KT 9999 BKN029/// SCT050/// 06/05 Q1030 NNW (340°) 9.2mph 6°C 5°C
10/01/19 21:50 EGDM 102150Z AUTO 33011KT 8000 BR FEW006/// OVC050/// 06/05 Q1030 BR NNW (330°) 12.7mph 6°C 5°C
10/01/19 20:50 EGDM 102050Z AUTO 32011KT 5000 BR OVC004/// 06/05 Q1030 BR NW (320°) 12.7mph 6°C 5°C
10/01/19 19:50 EGDM 101950Z AUTO 32012KT 7000 BR OVC004/// 05/04 Q1030 BR NW (320°) 13.8mph 5°C 4°C
10/01/19 18:50 EGDM 101850Z AUTO 31009KT 8000 HZ OVC004/// 05/04 Q1030 HZ NW (310°) 10.4mph 5°C 4°C
10/01/19 17:50 EGDM 101750Z 32010KT 9999 OVC007 05/03 Q1030 GRN NW (320°) 11.5mph 5°C 3°C
10/01/19 16:50 EGDM 101650Z 31006KT 9999 OVC008 04/02 Q1030 GRN NW (310°) 6.9mph 4°C 2°C
10/01/19 15:50 EGDM 101550Z 30007KT 9999 OVC009 04/01 Q1030 GRN NOSIG WNW (300°) 8.1mph 4°C 1°C
10/01/19 14:40 EGDM 101440Z 31006KT 9999 BKN013 04/01 Q1030 GRN NOSIG NW (310°) 6.9mph 4°C 1°C
10/01/19 13:50 EGDM 101350Z 31007KT 9999 BKN016 04/00 Q1030 WHT BECMG BKN012 GRN NW (310°) 8.1mph 4°C 0°C
10/01/19 12:50 EGDM 101250Z 31008KT 9999 BKN017 BKN045 04/00 Q1030 WHT BECMG BKN010 GRN NW (310°) 9.2mph 4°C 0°C
10/01/19 11:50 EGDM 101150Z 31005KT 9999 SCT045 BKN200 03/01 Q1031 BLU NOSIG NW (310°) 5.8mph 3°C 1°C
10/01/19 10:50 EGDM 101050Z 30005KT CAVOK 01/M01 Q1032 BLU NOSIG WNW (300°) 5.8mph 1°C -1°C
10/01/19 09:50 EGDM 100950Z 30006KT 9000 HZ BKN060 BKN090 00/M01 Q1031 BLU NOSIG HZ WNW (300°) 6.9mph 0°C -1°C
10/01/19 08:50 EGDM 100850Z 31006KT 8000 BR SCT050 SCT090 BKN190 M01/M02 Q1031 BLU NOSIG BR NW (310°) 6.9mph -1°C -2°C
10/01/19 07:50 EGDM 100750Z 29006KT 8000 BR FEW060 BKN190 M01/M02 Q1031 BLU NOSIG BR WNW (290°) 6.9mph -1°C -2°C
10/01/19 06:50 EGDM 100650Z 29005KT 8000 BR FEW080 BKN190 M01/M02 Q1031 BLU BR WNW (290°) 5.8mph -1°C -2°C
10/01/19 05:50 EGDM 100550Z AUTO 29005KT 6000 BR SCT080/// SCT190/// M02/M03 Q1031 BR WNW (290°) 5.8mph -2°C -3°C
10/01/19 04:50 EGDM 100450Z AUTO 28005KT 6000 BR BKN090/// BKN190/// M02/M03 Q1031 BR W (280°) 5.8mph -2°C -3°C